sensor_id;sensor_type;location;lat;lon;timestamp;pressure;altitude;pressure_sealevel;temperature
66170;BMP280;66757;44.024;20.456;2023-08-08T00:00:02;98131.22;;;16.76
66170;BMP280;66757;44.024;20.456;2023-08-08T00:02:29;98132.22;;;16.84
66170;BMP280;66757;44.024;20.456;2023-08-08T00:04:54;98140.56;;;16.95
66170;BMP280;66757;44.024;20.456;2023-08-08T00:07:19;98137.50;;;16.56
66170;BMP280;66757;44.024;20.456;2023-08-08T00:09:45;98130.16;;;16.04
66170;BMP280;66757;44.024;20.456;2023-08-08T00:12:10;98126.81;;;16.07
66170;BMP280;66757;44.024;20.456;2023-08-08T00:14:36;98129.28;;;16.37
66170;BMP280;66757;44.024;20.456;2023-08-08T00:17:02;98136.84;;;16.10
66170;BMP280;66757;44.024;20.456;2023-08-08T00:19:28;98125.00;;;16.48
66170;BMP280;66757;44.024;20.456;2023-08-08T00:21:53;98127.03;;;16.63
66170;BMP280;66757;44.024;20.456;2023-08-08T00:24:19;98134.06;;;16.68
66170;BMP280;66757;44.024;20.456;2023-08-08T00:26:44;98129.91;;;16.70
66170;BMP280;66757;44.024;20.456;2023-08-08T00:29:09;98125.06;;;16.88
66170;BMP280;66757;44.024;20.456;2023-08-08T00:31:35;98124.78;;;17.05
66170;BMP280;66757;44.024;20.456;2023-08-08T00:34:00;98125.63;;;16.94
66170;BMP280;66757;44.024;20.456;2023-08-08T00:36:25;98143.38;;;16.86
66170;BMP280;66757;44.024;20.456;2023-08-08T00:38:51;98146.38;;;16.84
66170;BMP280;66757;44.024;20.456;2023-08-08T00:41:16;98146.00;;;17.10
66170;BMP280;66757;44.024;20.456;2023-08-08T00:43:41;98150.75;;;17.17
66170;BMP280;66757;44.024;20.456;2023-08-08T00:46:08;98148.34;;;17.12
66170;BMP280;66757;44.024;20.456;2023-08-08T00:48:33;98140.63;;;17.10
66170;BMP280;66757;44.024;20.456;2023-08-08T00:50:59;98135.47;;;17.17
66170;BMP280;66757;44.024;20.456;2023-08-08T00:53:25;98145.66;;;17.12
66170;BMP280;66757;44.024;20.456;2023-08-08T00:55:54;98145.97;;;16.82
66170;BMP280;66757;44.024;20.456;2023-08-08T00:58:19;98151.22;;;17.07
66170;BMP280;66757;44.024;20.456;2023-08-08T01:00:44;98149.75;;;16.81
66170;BMP280;66757;44.024;20.456;2023-08-08T01:03:10;98144.88;;;17.11
66170;BMP280;66757;44.024;20.456;2023-08-08T01:05:38;98145.97;;;16.70
66170;BMP280;66757;44.024;20.456;2023-08-08T01:08:05;98153.06;;;17.03
66170;BMP280;66757;44.024;20.456;2023-08-08T01:10:38;98148.16;;;16.93
66170;BMP280;66757;44.024;20.456;2023-08-08T01:13:04;98142.78;;;16.93
66170;BMP280;66757;44.024;20.456;2023-08-08T01:15:31;98146.09;;;17.14
66170;BMP280;66757;44.024;20.456;2023-08-08T01:18:01;98145.25;;;16.98
66170;BMP280;66757;44.024;20.456;2023-08-08T01:20:28;98147.69;;;17.03
66170;BMP280;66757;44.024;20.456;2023-08-08T01:25:31;98142.41;;;16.66
66170;BMP280;66757;44.024;20.456;2023-08-08T01:27:57;98144.25;;;16.90
66170;BMP280;66757;44.024;20.456;2023-08-08T01:30:22;98144.91;;;16.99
66170;BMP280;66757;44.024;20.456;2023-08-08T01:32:47;98146.69;;;16.95
66170;BMP280;66757;44.024;20.456;2023-08-08T01:35:13;98146.31;;;16.57
66170;BMP280;66757;44.024;20.456;2023-08-08T01:37:43;98148.00;;;16.49
66170;BMP280;66757;44.024;20.456;2023-08-08T01:40:09;98152.63;;;16.88
66170;BMP280;66757;44.024;20.456;2023-08-08T01:42:36;98149.75;;;16.94
66170;BMP280;66757;44.024;20.456;2023-08-08T01:45:01;98149.44;;;16.59
66170;BMP280;66757;44.024;20.456;2023-08-08T01:47:27;98156.50;;;16.51
66170;BMP280;66757;44.024;20.456;2023-08-08T01:49:52;98157.13;;;16.72
66170;BMP280;66757;44.024;20.456;2023-08-08T01:52:18;98160.22;;;16.74
66170;BMP280;66757;44.024;20.456;2023-08-08T01:54:43;98164.50;;;16.39
66170;BMP280;66757;44.024;20.456;2023-08-08T01:57:08;98152.69;;;16.52
66170;BMP280;66757;44.024;20.456;2023-08-08T01:59:34;98152.22;;;16.62
66170;BMP280;66757;44.024;20.456;2023-08-08T02:01:59;98150.66;;;16.61
66170;BMP280;66757;44.024;20.456;2023-08-08T02:04:24;98150.44;;;16.54
66170;BMP280;66757;44.024;20.456;2023-08-08T02:06:50;98140.94;;;16.69
66170;BMP280;66757;44.024;20.456;2023-08-08T02:09:15;98143.50;;;16.77
66170;BMP280;66757;44.024;20.456;2023-08-08T02:11:41;98142.91;;;16.84
66170;BMP280;66757;44.024;20.456;2023-08-08T02:14:07;98150.63;;;16.85
66170;BMP280;66757;44.024;20.456;2023-08-08T02:16:32;98141.00;;;16.97
66170;BMP280;66757;44.024;20.456;2023-08-08T02:19:00;98144.22;;;17.02
66170;BMP280;66757;44.024;20.456;2023-08-08T02:21:25;98141.28;;;17.07
66170;BMP280;66757;44.024;20.456;2023-08-08T02:23:50;98145.00;;;17.03
66170;BMP280;66757;44.024;20.456;2023-08-08T02:26:17;98144.53;;;17.13
66170;BMP280;66757;44.024;20.456;2023-08-08T02:28:44;98146.91;;;16.90
66170;BMP280;66757;44.024;20.456;2023-08-08T02:31:09;98144.59;;;16.88
66170;BMP280;66757;44.024;20.456;2023-08-08T02:33:35;98151.13;;;16.63
66170;BMP280;66757;44.024;20.456;2023-08-08T02:36:00;98155.81;;;16.42
66170;BMP280;66757;44.024;20.456;2023-08-08T02:41:18;98153.25;;;16.45
66170;BMP280;66757;44.024;20.456;2023-08-08T02:43:43;98158.66;;;16.85
66170;BMP280;66757;44.024;20.456;2023-08-08T02:46:08;98154.19;;;16.89
66170;BMP280;66757;44.024;20.456;2023-08-08T02:48:34;98156.63;;;16.95
66170;BMP280;66757;44.024;20.456;2023-08-08T02:51:00;98163.69;;;16.87
66170;BMP280;66757;44.024;20.456;2023-08-08T02:53:25;98174.19;;;16.80
66170;BMP280;66757;44.024;20.456;2023-08-08T02:55:52;98166.63;;;16.58
66170;BMP280;66757;44.024;20.456;2023-08-08T02:58:17;98182.47;;;16.63
66170;BMP280;66757;44.024;20.456;2023-08-08T03:00:43;98175.38;;;15.97
66170;BMP280;66757;44.024;20.456;2023-08-08T03:03:09;98169.25;;;15.97
66170;BMP280;66757;44.024;20.456;2023-08-08T03:05:34;98175.44;;;16.22
66170;BMP280;66757;44.024;20.456;2023-08-08T03:08:00;98177.56;;;16.40
66170;BMP280;66757;44.024;20.456;2023-08-08T03:10:25;98183.22;;;16.27
66170;BMP280;66757;44.024;20.456;2023-08-08T03:12:51;98181.25;;;16.24
66170;BMP280;66757;44.024;20.456;2023-08-08T03:15:18;98188.34;;;16.07
66170;BMP280;66757;44.024;20.456;2023-08-08T03:20:13;98188.03;;;16.33
66170;BMP280;66757;44.024;20.456;2023-08-08T03:22:39;98188.38;;;16.32
66170;BMP280;66757;44.024;20.456;2023-08-08T03:27:33;98196.59;;;16.15
66170;BMP280;66757;44.024;20.456;2023-08-08T03:29:58;98207.97;;;16.11
66170;BMP280;66757;44.024;20.456;2023-08-08T03:32:24;98202.06;;;16.18
66170;BMP280;66757;44.024;20.456;2023-08-08T03:34:49;98204.19;;;16.12
66170;BMP280;66757;44.024;20.456;2023-08-08T03:37:15;98211.97;;;16.18
66170;BMP280;66757;44.024;20.456;2023-08-08T03:39:42;98213.09;;;16.17
66170;BMP280;66757;44.024;20.456;2023-08-08T03:42:08;98223.94;;;15.87
66170;BMP280;66757;44.024;20.456;2023-08-08T03:44:35;98226.38;;;15.80
66170;BMP280;66757;44.024;20.456;2023-08-08T03:47:00;98224.38;;;15.56
66170;BMP280;66757;44.024;20.456;2023-08-08T03:49:26;98223.94;;;15.87
66170;BMP280;66757;44.024;20.456;2023-08-08T03:51:51;98221.13;;;15.71
66170;BMP280;66757;44.024;20.456;2023-08-08T03:54:17;98225.50;;;15.76
66170;BMP280;66757;44.024;20.456;2023-08-08T03:56:43;98221.34;;;15.79
66170;BMP280;66757;44.024;20.456;2023-08-08T03:59:08;98221.72;;;15.77
66170;BMP280;66757;44.024;20.456;2023-08-08T04:01:33;98225.81;;;15.54
66170;BMP280;66757;44.024;20.456;2023-08-08T04:03:58;98236.03;;;15.72
66170;BMP280;66757;44.024;20.456;2023-08-08T04:06:24;98227.28;;;15.84
66170;BMP280;66757;44.024;20.456;2023-08-08T04:08:49;98231.00;;;15.92
66170;BMP280;66757;44.024;20.456;2023-08-08T04:11:15;98239.59;;;15.97
66170;BMP280;66757;44.024;20.456;2023-08-08T04:13:40;98231.34;;;16.02
66170;BMP280;66757;44.024;20.456;2023-08-08T04:16:05;98238.53;;;16.10
66170;BMP280;66757;44.024;20.456;2023-08-08T04:18:31;98236.41;;;16.16
66170;BMP280;66757;44.024;20.456;2023-08-08T04:20:56;98242.50;;;15.92
66170;BMP280;66757;44.024;20.456;2023-08-08T04:23:21;98232.78;;;16.21
66170;BMP280;66757;44.024;20.456;2023-08-08T04:25:50;98236.88;;;16.30
66170;BMP280;66757;44.024;20.456;2023-08-08T04:28:15;98238.38;;;16.40
66170;BMP280;66757;44.024;20.456;2023-08-08T04:30:42;98241.72;;;16.37
66170;BMP280;66757;44.024;20.456;2023-08-08T04:33:07;98236.75;;;16.15
66170;BMP280;66757;44.024;20.456;2023-08-08T04:35:32;98243.81;;;16.31
66170;BMP280;66757;44.024;20.456;2023-08-08T04:37:59;98242.84;;;16.36
66170;BMP280;66757;44.024;20.456;2023-08-08T04:40:24;98244.25;;;16.33
66170;BMP280;66757;44.024;20.456;2023-08-08T04:42:50;98245.94;;;16.26
66170;BMP280;66757;44.024;20.456;2023-08-08T04:45:15;98262.13;;;16.41
66170;BMP280;66757;44.024;20.456;2023-08-08T04:47:41;98257.31;;;16.47
66170;BMP280;66757;44.024;20.456;2023-08-08T04:50:06;98263.00;;;16.45
66170;BMP280;66757;44.024;20.456;2023-08-08T04:52:32;98280.94;;;16.00
66170;BMP280;66757;44.024;20.456;2023-08-08T04:54:57;98281.22;;;16.07
66170;BMP280;66757;44.024;20.456;2023-08-08T04:57:22;98281.28;;;16.19
66170;BMP280;66757;44.024;20.456;2023-08-08T04:59:48;98272.50;;;16.55
66170;BMP280;66757;44.024;20.456;2023-08-08T05:02:13;98283.59;;;16.33
66170;BMP280;66757;44.024;20.456;2023-08-08T05:04:38;98285.72;;;16.27
66170;BMP280;66757;44.024;20.456;2023-08-08T05:07:04;98289.81;;;16.58
66170;BMP280;66757;44.024;20.456;2023-08-08T05:09:29;98290.34;;;16.39
66170;BMP280;66757;44.024;20.456;2023-08-08T05:11:54;98305.13;;;16.24
66170;BMP280;66757;44.024;20.456;2023-08-08T05:14:20;98304.13;;;16.29
66170;BMP280;66757;44.024;20.456;2023-08-08T05:16:45;98300.63;;;16.49
66170;BMP280;66757;44.024;20.456;2023-08-08T05:19:11;98300.53;;;16.58
66170;BMP280;66757;44.024;20.456;2023-08-08T05:21:36;98309.34;;;16.70
66170;BMP280;66757;44.024;20.456;2023-08-08T05:24:02;98319.03;;;16.50
66170;BMP280;66757;44.024;20.456;2023-08-08T05:26:28;98313.84;;;16.66
66170;BMP280;66757;44.024;20.456;2023-08-08T05:28:53;98326.78;;;17.01
66170;BMP280;66757;44.024;20.456;2023-08-08T05:31:18;98327.69;;;17.17
66170;BMP280;66757;44.024;20.456;2023-08-08T05:33:44;98326.56;;;17.18
66170;BMP280;66757;44.024;20.456;2023-08-08T05:36:09;98333.56;;;17.35
66170;BMP280;66757;44.024;20.456;2023-08-08T05:38:34;98332.66;;;17.55
66170;BMP280;66757;44.024;20.456;2023-08-08T05:41:00;98347.28;;;17.70
66170;BMP280;66757;44.024;20.456;2023-08-08T05:43:25;98340.41;;;17.84
66170;BMP280;66757;44.024;20.456;2023-08-08T05:45:52;98347.47;;;17.64
66170;BMP280;66757;44.024;20.456;2023-08-08T05:48:17;98340.53;;;17.88
66170;BMP280;66757;44.024;20.456;2023-08-08T05:50:43;98349.28;;;17.73
66170;BMP280;66757;44.024;20.456;2023-08-08T05:53:08;98353.69;;;17.93
66170;BMP280;66757;44.024;20.456;2023-08-08T05:55:33;98357.88;;;18.06
66170;BMP280;66757;44.024;20.456;2023-08-08T05:57:59;98355.22;;;18.22
66170;BMP280;66757;44.024;20.456;2023-08-08T06:00:24;98358.38;;;17.56
66170;BMP280;66757;44.024;20.456;2023-08-08T06:02:49;98355.47;;;17.89
66170;BMP280;66757;44.024;20.456;2023-08-08T06:05:19;98356.25;;;18.45
66170;BMP280;66757;44.024;20.456;2023-08-08T06:07:46;98346.44;;;18.84
66170;BMP280;66757;44.024;20.456;2023-08-08T06:10:11;98358.16;;;19.07
66170;BMP280;66757;44.024;20.456;2023-08-08T06:12:38;98359.22;;;18.87
66170;BMP280;66757;44.024;20.456;2023-08-08T06:15:04;98358.59;;;19.09
66170;BMP280;66757;44.024;20.456;2023-08-08T06:17:29;98353.34;;;19.32
66170;BMP280;66757;44.024;20.456;2023-08-08T06:19:54;98348.25;;;19.11
66170;BMP280;66757;44.024;20.456;2023-08-08T06:22:22;98348.63;;;19.29
66170;BMP280;66757;44.024;20.456;2023-08-08T06:24:47;98349.34;;;19.26
66170;BMP280;66757;44.024;20.456;2023-08-08T06:27:12;98356.78;;;18.82
66170;BMP280;66757;44.024;20.456;2023-08-08T06:29:38;98353.84;;;19.38
66170;BMP280;66757;44.024;20.456;2023-08-08T06:32:04;98351.06;;;18.68
66170;BMP280;66757;44.024;20.456;2023-08-08T06:34:31;98357.09;;;18.96
66170;BMP280;66757;44.024;20.456;2023-08-08T06:36:56;98356.31;;;19.27
66170;BMP280;66757;44.024;20.456;2023-08-08T06:39:22;98361.81;;;18.99
66170;BMP280;66757;44.024;20.456;2023-08-08T06:41:47;98369.72;;;18.76
66170;BMP280;66757;44.024;20.456;2023-08-08T06:44:12;98380.59;;;19.65
66170;BMP280;66757;44.024;20.456;2023-08-08T06:46:38;98381.88;;;19.37
66170;BMP280;66757;44.024;20.456;2023-08-08T06:49:03;98378.81;;;19.03
66170;BMP280;66757;44.024;20.456;2023-08-08T06:51:29;98377.22;;;19.72
66170;BMP280;66757;44.024;20.456;2023-08-08T06:53:55;98381.91;;;19.56
66170;BMP280;66757;44.024;20.456;2023-08-08T06:56:20;98384.56;;;20.33
66170;BMP280;66757;44.024;20.456;2023-08-08T06:58:45;98387.66;;;20.31
66170;BMP280;66757;44.024;20.456;2023-08-08T07:01:10;98393.00;;;19.89
66170;BMP280;66757;44.024;20.456;2023-08-08T07:03:36;98380.09;;;19.60
66170;BMP280;66757;44.024;20.456;2023-08-08T07:06:02;98383.44;;;19.38
66170;BMP280;66757;44.024;20.456;2023-08-08T07:08:27;98384.06;;;19.66
66170;BMP280;66757;44.024;20.456;2023-08-08T07:10:53;98379.94;;;19.53
66170;BMP280;66757;44.024;20.456;2023-08-08T07:13:18;98375.53;;;19.64
66170;BMP280;66757;44.024;20.456;2023-08-08T07:15:43;98381.91;;;19.56
66170;BMP280;66757;44.024;20.456;2023-08-08T07:18:09;98382.97;;;19.16
66170;BMP280;66757;44.024;20.456;2023-08-08T07:20:34;98383.63;;;19.64
66170;BMP280;66757;44.024;20.456;2023-08-08T07:22:59;98385.34;;;20.33
66170;BMP280;66757;44.024;20.456;2023-08-08T07:25:26;98385.63;;;20.47
66170;BMP280;66757;44.024;20.456;2023-08-08T07:27:52;98386.88;;;20.76
66170;BMP280;66757;44.024;20.456;2023-08-08T07:30:18;98378.63;;;21.15
66170;BMP280;66757;44.024;20.456;2023-08-08T07:32:43;98380.13;;;21.12
66170;BMP280;66757;44.024;20.456;2023-08-08T07:35:09;98376.78;;;20.28
66170;BMP280;66757;44.024;20.456;2023-08-08T07:37:35;98375.22;;;20.69
66170;BMP280;66757;44.024;20.456;2023-08-08T07:40:01;98382.66;;;20.33
66170;BMP280;66757;44.024;20.456;2023-08-08T07:42:26;98378.00;;;20.53
66170;BMP280;66757;44.024;20.456;2023-08-08T07:44:52;98379.84;;;20.26
66170;BMP280;66757;44.024;20.456;2023-08-08T07:47:17;98377.41;;;20.86
66170;BMP280;66757;44.024;20.456;2023-08-08T07:49:43;98376.47;;;20.52
66170;BMP280;66757;44.024;20.456;2023-08-08T07:52:08;98386.09;;;20.53
66170;BMP280;66757;44.024;20.456;2023-08-08T07:54:34;98378.34;;;20.29
66170;BMP280;66757;44.024;20.456;2023-08-08T07:56:59;98381.59;;;20.83
66170;BMP280;66757;44.024;20.456;2023-08-08T07:59:25;98378.41;;;21.27
66170;BMP280;66757;44.024;20.456;2023-08-08T08:01:50;98368.53;;;21.38
66170;BMP280;66757;44.024;20.456;2023-08-08T08:04:15;98376.78;;;20.28
66170;BMP280;66757;44.024;20.456;2023-08-08T08:06:41;98373.88;;;20.36
66170;BMP280;66757;44.024;20.456;2023-08-08T08:09:06;98380.72;;;20.11
66170;BMP280;66757;44.024;20.456;2023-08-08T08:11:32;98386.03;;;20.27
66170;BMP280;66757;44.024;20.456;2023-08-08T08:13:57;98384.00;;;20.43
66170;BMP280;66757;44.024;20.456;2023-08-08T08:16:22;98387.09;;;20.45
66170;BMP280;66757;44.024;20.456;2023-08-08T08:18:48;98373.88;;;20.36
66170;BMP280;66757;44.024;20.456;2023-08-08T08:21:14;98377.34;;;20.82
66170;BMP280;66757;44.024;20.456;2023-08-08T08:23:39;98377.22;;;20.75
66170;BMP280;66757;44.024;20.456;2023-08-08T08:26:05;98380.41;;;21.07
66170;BMP280;66757;44.024;20.456;2023-08-08T08:28:30;98374.56;;;20.53
66170;BMP280;66757;44.024;20.456;2023-08-08T08:30:55;98375.69;;;21.01
66170;BMP280;66757;44.024;20.456;2023-08-08T08:33:21;98374.75;;;21.42
66170;BMP280;66757;44.024;20.456;2023-08-08T08:35:46;98375.59;;;21.20
66170;BMP280;66757;44.024;20.456;2023-08-08T08:38:11;98368.84;;;21.33
66170;BMP280;66757;44.024;20.456;2023-08-08T08:40:37;98369.97;;;21.58
66170;BMP280;66757;44.024;20.456;2023-08-08T08:43:03;98377.81;;;21.70
66170;BMP280;66757;44.024;20.456;2023-08-08T08:45:29;98381.91;;;21.57
66170;BMP280;66757;44.024;20.456;2023-08-08T08:47:56;98394.03;;;21.44
66170;BMP280;66757;44.024;20.456;2023-08-08T08:50:21;98388.44;;;20.77
66170;BMP280;66757;44.024;20.456;2023-08-08T08:52:48;98383.31;;;20.69
66170;BMP280;66757;44.024;20.456;2023-08-08T08:55:14;98397.75;;;21.06
66170;BMP280;66757;44.024;20.456;2023-08-08T08:57:39;98384.53;;;21.24
66170;BMP280;66757;44.024;20.456;2023-08-08T09:00:05;98380.00;;;21.05
66170;BMP280;66757;44.024;20.456;2023-08-08T09:02:31;98387.66;;;20.77
66170;BMP280;66757;44.024;20.456;2023-08-08T09:04:58;98373.44;;;21.96
66170;BMP280;66757;44.024;20.456;2023-08-08T09:07:23;98375.09;;;22.04
66170;BMP280;66757;44.024;20.456;2023-08-08T09:09:51;98373.25;;;21.74
66170;BMP280;66757;44.024;20.456;2023-08-08T09:12:17;98375.56;;;21.46
66170;BMP280;66757;44.024;20.456;2023-08-08T09:14:43;98372.00;;;21.68
66170;BMP280;66757;44.024;20.456;2023-08-08T09:17:12;98369.13;;;21.54
66170;BMP280;66757;44.024;20.456;2023-08-08T09:19:38;98368.72;;;21.82
66170;BMP280;66757;44.024;20.456;2023-08-08T09:22:05;98370.38;;;21.64
66170;BMP280;66757;44.024;20.456;2023-08-08T09:24:30;98367.81;;;21.71
66170;BMP280;66757;44.024;20.456;2023-08-08T09:26:56;98372.59;;;21.25
66170;BMP280;66757;44.024;20.456;2023-08-08T09:29:21;98378.88;;;20.57
66170;BMP280;66757;44.024;20.456;2023-08-08T09:31:46;98370.47;;;21.11
66170;BMP280;66757;44.024;20.456;2023-08-08T09:34:12;98374.53;;;21.54
66170;BMP280;66757;44.024;20.456;2023-08-08T09:36:39;98378.00;;;20.76
66170;BMP280;66757;44.024;20.456;2023-08-08T09:39:05;98371.47;;;21.89
66170;BMP280;66757;44.024;20.456;2023-08-08T09:41:30;98364.81;;;21.50
66170;BMP280;66757;44.024;20.456;2023-08-08T09:43:55;98364.78;;;21.46
66170;BMP280;66757;44.024;20.456;2023-08-08T09:46:21;98363.91;;;22.02
66170;BMP280;66757;44.024;20.456;2023-08-08T09:48:47;98364.44;;;22.62
66170;BMP280;66757;44.024;20.456;2023-08-08T09:51:12;98365.47;;;22.98
66170;BMP280;66757;44.024;20.456;2023-08-08T09:53:38;98367.41;;;22.50
66170;BMP280;66757;44.024;20.456;2023-08-08T09:56:04;98373.53;;;22.91
66170;BMP280;66757;44.024;20.456;2023-08-08T09:58:30;98375.06;;;22.92
66170;BMP280;66757;44.024;20.456;2023-08-08T10:00:55;98365.47;;;21.69
66170;BMP280;66757;44.024;20.456;2023-08-08T10:03:20;98370.28;;;21.87
66170;BMP280;66757;44.024;20.456;2023-08-08T10:05:46;98371.91;;;22.32
66170;BMP280;66757;44.024;20.456;2023-08-08T10:08:14;98367.91;;;22.59
66170;BMP280;66757;44.024;20.456;2023-08-08T10:10:40;98371.91;;;22.32
66170;BMP280;66757;44.024;20.456;2023-08-08T10:13:06;98379.25;;;21.94
66170;BMP280;66757;44.024;20.456;2023-08-08T10:15:31;98368.50;;;22.42
66170;BMP280;66757;44.024;20.456;2023-08-08T10:17:57;98370.41;;;21.97
66170;BMP280;66757;44.024;20.456;2023-08-08T10:20:26;98367.91;;;22.59
66170;BMP280;66757;44.024;20.456;2023-08-08T10:22:52;98377.66;;;23.36
66170;BMP280;66757;44.024;20.456;2023-08-08T10:25:18;98383.13;;;25.41
66170;BMP280;66757;44.024;20.456;2023-08-08T10:27:44;98354.91;;;26.42
66170;BMP280;66757;44.024;20.456;2023-08-08T10:30:10;98358.66;;;23.29
66170;BMP280;66757;44.024;20.456;2023-08-08T10:32:40;98350.94;;;23.27
66170;BMP280;66757;44.024;20.456;2023-08-08T10:35:07;98353.53;;;23.10
66170;BMP280;66757;44.024;20.456;2023-08-08T10:37:33;98365.19;;;23.17
66170;BMP280;66757;44.024;20.456;2023-08-08T10:39:58;98361.09;;;22.83
66170;BMP280;66757;44.024;20.456;2023-08-08T10:42:25;98357.44;;;22.57
66170;BMP280;66757;44.024;20.456;2023-08-08T10:45:00;98350.00;;;22.44
66170;BMP280;66757;44.024;20.456;2023-08-08T10:47:29;98354.56;;;22.36
66170;BMP280;66757;44.024;20.456;2023-08-08T10:52:30;98357.09;;;22.59
66170;BMP280;66757;44.024;20.456;2023-08-08T10:54:55;98369.31;;;23.80
66170;BMP280;66757;44.024;20.456;2023-08-08T10:57:24;98351.22;;;26.18
66170;BMP280;66757;44.024;20.456;2023-08-08T10:59:49;98383.19;;;26.89
66170;BMP280;66757;44.024;20.456;2023-08-08T11:02:15;98370.94;;;27.38
66170;BMP280;66757;44.024;20.456;2023-08-08T11:04:40;98380.25;;;28.83
66170;BMP280;66757;44.024;20.456;2023-08-08T11:07:06;98365.13;;;29.70
66170;BMP280;66757;44.024;20.456;2023-08-08T11:09:32;98360.00;;;29.56
66170;BMP280;66757;44.024;20.456;2023-08-08T11:11:57;98365.97;;;28.95
66170;BMP280;66757;44.024;20.456;2023-08-08T11:14:22;98365.06;;;28.63
66170;BMP280;66757;44.024;20.456;2023-08-08T11:16:49;98370.41;;;28.03
66170;BMP280;66757;44.024;20.456;2023-08-08T11:19:14;98363.94;;;27.37
66170;BMP280;66757;44.024;20.456;2023-08-08T11:21:42;98368.09;;;27.75
66170;BMP280;66757;44.024;20.456;2023-08-08T11:24:08;98346.47;;;27.34
66170;BMP280;66757;44.024;20.456;2023-08-08T11:26:37;98351.78;;;27.72
66170;BMP280;66757;44.024;20.456;2023-08-08T11:29:03;98360.91;;;27.88
66170;BMP280;66757;44.024;20.456;2023-08-08T11:31:29;98341.25;;;26.01
66170;BMP280;66757;44.024;20.456;2023-08-08T11:33:55;98353.34;;;25.96
66170;BMP280;66757;44.024;20.456;2023-08-08T11:36:21;98343.03;;;26.22
66170;BMP280;66757;44.024;20.456;2023-08-08T11:38:47;98354.00;;;25.49
66170;BMP280;66757;44.024;20.456;2023-08-08T11:41:13;98357.69;;;24.96
66170;BMP280;66757;44.024;20.456;2023-08-08T11:43:39;98357.31;;;23.81
66170;BMP280;66757;44.024;20.456;2023-08-08T11:46:12;98361.19;;;23.80
66170;BMP280;66757;44.024;20.456;2023-08-08T11:48:38;98355.69;;;23.59
66170;BMP280;66757;44.024;20.456;2023-08-08T11:51:04;98361.28;;;23.11
66170;BMP280;66757;44.024;20.456;2023-08-08T11:53:29;98352.38;;;23.14
66170;BMP280;66757;44.024;20.456;2023-08-08T11:55:54;98358.88;;;22.99
66170;BMP280;66757;44.024;20.456;2023-08-08T11:58:20;98357.00;;;23.03
66170;BMP280;66757;44.024;20.456;2023-08-08T12:00:46;98366.34;;;22.14
66170;BMP280;66757;44.024;20.456;2023-08-08T12:03:12;98354.69;;;23.05
66170;BMP280;66757;44.024;20.456;2023-08-08T12:05:39;98349.75;;;23.28
66170;BMP280;66757;44.024;20.456;2023-08-08T12:08:05;98353.00;;;22.83
66170;BMP280;66757;44.024;20.456;2023-08-08T12:10:31;98352.38;;;23.14
66170;BMP280;66757;44.024;20.456;2023-08-08T12:12:57;98347.13;;;23.35
66170;BMP280;66757;44.024;20.456;2023-08-08T12:15:28;98347.44;;;22.62
66170;BMP280;66757;44.024;20.456;2023-08-08T12:17:53;98338.00;;;22.96
66170;BMP280;66757;44.024;20.456;2023-08-08T12:20:19;98334.91;;;22.97
66170;BMP280;66757;44.024;20.456;2023-08-08T12:22:44;98342.31;;;23.08
66170;BMP280;66757;44.024;20.456;2023-08-08T12:25:10;98328.53;;;23.37
66170;BMP280;66757;44.024;20.456;2023-08-08T12:27:36;98340.19;;;23.56
66170;BMP280;66757;44.024;20.456;2023-08-08T12:30:03;98332.06;;;23.45
66170;BMP280;66757;44.024;20.456;2023-08-08T12:32:29;98334.47;;;22.88
66170;BMP280;66757;44.024;20.456;2023-08-08T12:34:56;98334.78;;;23.49
66170;BMP280;66757;44.024;20.456;2023-08-08T12:37:23;98329.75;;;23.47
66170;BMP280;66757;44.024;20.456;2023-08-08T12:39:49;98333.16;;;23.30
66170;BMP280;66757;44.024;20.456;2023-08-08T12:42:14;98327.97;;;24.04
66170;BMP280;66757;44.024;20.456;2023-08-08T12:44:40;98326.31;;;23.68
66170;BMP280;66757;44.024;20.456;2023-08-08T12:47:05;98323.91;;;23.34
66170;BMP280;66757;44.024;20.456;2023-08-08T12:49:30;98322.09;;;23.99
66170;BMP280;66757;44.024;20.456;2023-08-08T12:51:56;98325.63;;;24.20
66170;BMP280;66757;44.024;20.456;2023-08-08T12:54:21;98312.03;;;23.78
66170;BMP280;66757;44.024;20.456;2023-08-08T12:56:47;98307.38;;;22.85
66170;BMP280;66757;44.024;20.456;2023-08-08T12:59:12;98301.09;;;23.35
66170;BMP280;66757;44.024;20.456;2023-08-08T13:01:37;98304.25;;;23.62
66170;BMP280;66757;44.024;20.456;2023-08-08T13:04:03;98306.28;;;24.04
66170;BMP280;66757;44.024;20.456;2023-08-08T13:06:29;98305.47;;;24.43
66170;BMP280;66757;44.024;20.456;2023-08-08T13:08:54;98305.47;;;24.64
66170;BMP280;66757;44.024;20.456;2023-08-08T13:11:21;98300.38;;;24.80
66170;BMP280;66757;44.024;20.456;2023-08-08T13:13:46;98300.44;;;23.95
66170;BMP280;66757;44.024;20.456;2023-08-08T13:16:11;98293.09;;;23.96
66170;BMP280;66757;44.024;20.456;2023-08-08T13:18:37;98298.81;;;23.59
66170;BMP280;66757;44.024;20.456;2023-08-08T13:21:02;98296.56;;;23.93
66170;BMP280;66757;44.024;20.456;2023-08-08T13:23:27;98293.84;;;24.42
66170;BMP280;66757;44.024;20.456;2023-08-08T13:25:53;98282.22;;;24.49
66170;BMP280;66757;44.024;20.456;2023-08-08T13:28:19;98287.66;;;23.92
66170;BMP280;66757;44.024;20.456;2023-08-08T13:30:44;98284.78;;;23.28
66170;BMP280;66757;44.024;20.456;2023-08-08T13:33:09;98273.56;;;23.23
66170;BMP280;66757;44.024;20.456;2023-08-08T13:35:35;98265.19;;;24.02
66170;BMP280;66757;44.024;20.456;2023-08-08T13:38:00;98267.91;;;24.16
66170;BMP280;66757;44.024;20.456;2023-08-08T13:40:26;98272.88;;;24.60
66170;BMP280;66757;44.024;20.456;2023-08-08T13:42:51;98270.16;;;23.58
66170;BMP280;66757;44.024;20.456;2023-08-08T13:45:19;98268.63;;;24.66
66170;BMP280;66757;44.024;20.456;2023-08-08T13:47:45;98259.63;;;24.94
66170;BMP280;66757;44.024;20.456;2023-08-08T13:50:11;98250.84;;;25.38
66170;BMP280;66757;44.024;20.456;2023-08-08T13:52:38;98260.13;;;24.64
66170;BMP280;66757;44.024;20.456;2023-08-08T13:55:04;98250.59;;;25.11
66170;BMP280;66757;44.024;20.456;2023-08-08T13:57:30;98252.16;;;25.12
66170;BMP280;66757;44.024;20.456;2023-08-08T13:59:55;98264.44;;;24.09